ナンディ の空港の天気 - METARとTAF

ナンディ国際空港 ( NFFN / NAN ) - フィジー ナンディ (ビティレブ島)
飛行場実況気象(Metar)
観測時間10/18 16:00 FJT (10/18 04:00 UTC)
風向・風速西 4m/s
視程10km以上
天気現象
少しの雲 雲底高度 520m
全天の4割程度の雲 雲底高度 730m
全天の8割程度の雲 雲底高度 3350m
気温28℃
湿度74%
気圧1012hPa
METARNFFN 180400Z 26007KT 9999 FEW017CB SCT024TCU BKN110 28/23 Q1012 TEMPO 3000 TSRA
過去の天気等 Google飛行場航空写真 Wunderground天気予報

過去48時間のMETAR

飛行場予報(TAF)
発表時間: 10/18 14:31 FJT (10/18 02:31 UTC)
予報対象時間: 18日14時 FJT ~ 19日12時 FJT
風向・風速西 5m/s
視程10km以上
全天の4割程度の雲 雲底高度 760m
全天の8割程度の雲 雲底高度 1370m
18日14時 FJT ~ 19日6時 FJT に一時的に
視程3000m
天気現象雷雨
全天の8割程度の雲 雲底高度 460m
少しの積乱雲 雲底高度 490m
18日15時 FJT ~ 18日17時 FJT に徐々に
風向・風速東南東 4m/s
TAF AMD NFFN 180231Z 1802/1824 27010KT 9999 SCT025 BKN045
TEMPO 1802/1818 3000 TSRA BKN015 FEW016CB
BECMG 1803/1805 11007KT